sensor_id;sensor_type;location;lat;lon;timestamp;temperature;humidity
18365;DHT22;9309;52.126;11.616;2023-03-11T00:00:52;0.40;98.30
18365;DHT22;9309;52.126;11.616;2023-03-11T00:03:20;0.40;98.40
18365;DHT22;9309;52.126;11.616;2023-03-11T00:05:49;0.40;98.30
18365;DHT22;9309;52.126;11.616;2023-03-11T00:08:19;0.40;98.30
18365;DHT22;9309;52.126;11.616;2023-03-11T00:10:46;0.40;98.20
18365;DHT22;9309;52.126;11.616;2023-03-11T00:13:14;0.40;98.10
18365;DHT22;9309;52.126;11.616;2023-03-11T00:15:41;0.40;98.30
18365;DHT22;9309;52.126;11.616;2023-03-11T00:18:08;0.40;98.10
18365;DHT22;9309;52.126;11.616;2023-03-11T00:20:39;0.40;98.30
18365;DHT22;9309;52.126;11.616;2023-03-11T00:23:10;0.40;98.50
18365;DHT22;9309;52.126;11.616;2023-03-11T00:25:37;0.40;98.50
18365;DHT22;9309;52.126;11.616;2023-03-11T00:28:04;0.40;98.50
18365;DHT22;9309;52.126;11.616;2023-03-11T00:30:32;0.40;98.30
18365;DHT22;9309;52.126;11.616;2023-03-11T00:32:58;0.40;98.10
18365;DHT22;9309;52.126;11.616;2023-03-11T00:35:26;0.40;98.20
18365;DHT22;9309;52.126;11.616;2023-03-11T00:37:54;0.40;98.10
18365;DHT22;9309;52.126;11.616;2023-03-11T00:40:22;0.50;97.80
18365;DHT22;9309;52.126;11.616;2023-03-11T00:42:49;0.40;98.10
18365;DHT22;9309;52.126;11.616;2023-03-11T00:45:15;0.40;98.50
18365;DHT22;9309;52.126;11.616;2023-03-11T00:47:42;0.40;98.40
18365;DHT22;9309;52.126;11.616;2023-03-11T00:50:09;0.30;98.50
18365;DHT22;9309;52.126;11.616;2023-03-11T00:52:39;0.40;98.70
18365;DHT22;9309;52.126;11.616;2023-03-11T00:55:07;0.40;98.80
18365;DHT22;9309;52.126;11.616;2023-03-11T00:57:34;0.40;98.60
18365;DHT22;9309;52.126;11.616;2023-03-11T01:00:01;0.40;98.70
18365;DHT22;9309;52.126;11.616;2023-03-11T01:02:28;0.40;98.70
18365;DHT22;9309;52.126;11.616;2023-03-11T01:04:55;0.40;98.60
18365;DHT22;9309;52.126;11.616;2023-03-11T01:07:22;0.40;98.60
18365;DHT22;9309;52.126;11.616;2023-03-11T01:09:48;0.40;98.60
18365;DHT22;9309;52.126;11.616;2023-03-11T01:12:16;0.40;98.60
18365;DHT22;9309;52.126;11.616;2023-03-11T01:14:43;0.40;98.50
18365;DHT22;9309;52.126;11.616;2023-03-11T01:17:09;0.40;98.70
18365;DHT22;9309;52.126;11.616;2023-03-11T01:19:36;0.40;98.60
18365;DHT22;9309;52.126;11.616;2023-03-11T01:22:02;0.40;98.40
18365;DHT22;9309;52.126;11.616;2023-03-11T01:24:29;0.30;98.20
18365;DHT22;9309;52.126;11.616;2023-03-11T01:26:56;0.30;98.60
18365;DHT22;9309;52.126;11.616;2023-03-11T01:29:24;0.30;98.50
18365;DHT22;9309;52.126;11.616;2023-03-11T01:31:51;0.30;98.80
18365;DHT22;9309;52.126;11.616;2023-03-11T01:34:17;0.30;99.00
18365;DHT22;9309;52.126;11.616;2023-03-11T01:36:44;0.30;99.00
18365;DHT22;9309;52.126;11.616;2023-03-11T01:39:11;0.30;99.10
18365;DHT22;9309;52.126;11.616;2023-03-11T01:41:37;0.30;98.80
18365;DHT22;9309;52.126;11.616;2023-03-11T01:44:04;0.30;98.90
18365;DHT22;9309;52.126;11.616;2023-03-11T01:46:38;0.30;98.80
18365;DHT22;9309;52.126;11.616;2023-03-11T01:49:28;0.30;98.70
18365;DHT22;9309;52.126;11.616;2023-03-11T01:51:55;0.30;98.70
18365;DHT22;9309;52.126;11.616;2023-03-11T01:54:23;0.30;98.80
18365;DHT22;9309;52.126;11.616;2023-03-11T01:56:50;0.30;98.70
18365;DHT22;9309;52.126;11.616;2023-03-11T01:59:19;0.30;98.70
18365;DHT22;9309;52.126;11.616;2023-03-11T02:01:50;0.30;98.70
18365;DHT22;9309;52.126;11.616;2023-03-11T02:04:17;0.30;98.60
18365;DHT22;9309;52.126;11.616;2023-03-11T02:06:46;0.30;98.30
18365;DHT22;9309;52.126;11.616;2023-03-11T02:09:12;0.30;98.00
18365;DHT22;9309;52.126;11.616;2023-03-11T02:11:39;0.30;97.70
18365;DHT22;9309;52.126;11.616;2023-03-11T02:14:06;0.40;97.40
18365;DHT22;9309;52.126;11.616;2023-03-11T02:16:33;0.40;97.00
18365;DHT22;9309;52.126;11.616;2023-03-11T02:22:30;0.40;97.00
18365;DHT22;9309;52.126;11.616;2023-03-11T02:25:02;0.40;96.20
18365;DHT22;9309;52.126;11.616;2023-03-11T02:27:32;0.40;96.60
18365;DHT22;9309;52.126;11.616;2023-03-11T02:30:02;0.40;96.30
18365;DHT22;9309;52.126;11.616;2023-03-11T02:32:33;0.40;95.80
18365;DHT22;9309;52.126;11.616;2023-03-11T02:34:59;0.40;95.70
18365;DHT22;9309;52.126;11.616;2023-03-11T02:37:27;0.40;96.10
18365;DHT22;9309;52.126;11.616;2023-03-11T02:40:26;0.40;95.90
18365;DHT22;9309;52.126;11.616;2023-03-11T02:42:56;0.40;95.60
18365;DHT22;9309;52.126;11.616;2023-03-11T02:45:25;0.40;95.50
18365;DHT22;9309;52.126;11.616;2023-03-11T02:47:52;0.40;95.50
18365;DHT22;9309;52.126;11.616;2023-03-11T02:50:20;0.40;95.50
18365;DHT22;9309;52.126;11.616;2023-03-11T02:52:47;0.40;95.20
18365;DHT22;9309;52.126;11.616;2023-03-11T02:55:14;0.40;95.70
18365;DHT22;9309;52.126;11.616;2023-03-11T02:57:42;0.30;95.00
18365;DHT22;9309;52.126;11.616;2023-03-11T03:00:11;0.30;95.10
18365;DHT22;9309;52.126;11.616;2023-03-11T03:02:44;0.40;94.50
18365;DHT22;9309;52.126;11.616;2023-03-11T03:05:11;0.40;94.60
18365;DHT22;9309;52.126;11.616;2023-03-11T03:07:38;0.40;94.80
18365;DHT22;9309;52.126;11.616;2023-03-11T03:10:06;0.40;95.50
18365;DHT22;9309;52.126;11.616;2023-03-11T03:12:33;0.40;95.30
18365;DHT22;9309;52.126;11.616;2023-03-11T03:15:00;0.40;94.70
18365;DHT22;9309;52.126;11.616;2023-03-11T03:17:27;0.40;95.00
18365;DHT22;9309;52.126;11.616;2023-03-11T03:19:54;0.30;95.50
18365;DHT22;9309;52.126;11.616;2023-03-11T03:22:21;0.30;95.70
18365;DHT22;9309;52.126;11.616;2023-03-11T03:24:51;0.30;95.90
18365;DHT22;9309;52.126;11.616;2023-03-11T03:27:18;0.30;95.80
18365;DHT22;9309;52.126;11.616;2023-03-11T03:29:45;0.30;95.70
18365;DHT22;9309;52.126;11.616;2023-03-11T03:32:12;0.20;96.00
18365;DHT22;9309;52.126;11.616;2023-03-11T03:34:40;0.30;95.90
18365;DHT22;9309;52.126;11.616;2023-03-11T03:37:08;0.40;95.00
18365;DHT22;9309;52.126;11.616;2023-03-11T03:39:35;0.40;95.30
18365;DHT22;9309;52.126;11.616;2023-03-11T03:42:02;0.40;95.30
18365;DHT22;9309;52.126;11.616;2023-03-11T03:44:37;0.30;95.20
18365;DHT22;9309;52.126;11.616;2023-03-11T03:47:10;0.30;94.70
18365;DHT22;9309;52.126;11.616;2023-03-11T03:49:39;0.30;95.40
18365;DHT22;9309;52.126;11.616;2023-03-11T03:52:06;0.30;95.20
18365;DHT22;9309;52.126;11.616;2023-03-11T03:54:35;0.30;95.40
18365;DHT22;9309;52.126;11.616;2023-03-11T03:57:03;0.30;94.50
18365;DHT22;9309;52.126;11.616;2023-03-11T03:59:32;0.30;94.40
18365;DHT22;9309;52.126;11.616;2023-03-11T04:01:59;0.30;93.90
18365;DHT22;9309;52.126;11.616;2023-03-11T04:04:28;0.30;94.00
18365;DHT22;9309;52.126;11.616;2023-03-11T04:06:58;0.30;93.90
18365;DHT22;9309;52.126;11.616;2023-03-11T04:09:25;0.30;93.60
18365;DHT22;9309;52.126;11.616;2023-03-11T04:11:52;0.30;93.40
18365;DHT22;9309;52.126;11.616;2023-03-11T04:14:19;0.40;93.50
18365;DHT22;9309;52.126;11.616;2023-03-11T04:16:52;0.30;93.80
18365;DHT22;9309;52.126;11.616;2023-03-11T04:19:19;0.30;93.60
18365;DHT22;9309;52.126;11.616;2023-03-11T04:21:46;0.30;93.60
18365;DHT22;9309;52.126;11.616;2023-03-11T04:24:14;0.30;93.20
18365;DHT22;9309;52.126;11.616;2023-03-11T04:26:41;0.30;92.70
18365;DHT22;9309;52.126;11.616;2023-03-11T04:29:12;0.30;93.70
18365;DHT22;9309;52.126;11.616;2023-03-11T04:31:43;0.30;93.80
18365;DHT22;9309;52.126;11.616;2023-03-11T04:34:10;0.30;93.20
18365;DHT22;9309;52.126;11.616;2023-03-11T04:36:38;0.30;93.30
18365;DHT22;9309;52.126;11.616;2023-03-11T04:39:06;0.40;93.20
18365;DHT22;9309;52.126;11.616;2023-03-11T04:41:47;0.40;92.60
18365;DHT22;9309;52.126;11.616;2023-03-11T04:44:37;0.50;92.70
18365;DHT22;9309;52.126;11.616;2023-03-11T04:47:11;0.40;92.30
18365;DHT22;9309;52.126;11.616;2023-03-11T04:49:38;0.40;92.70
18365;DHT22;9309;52.126;11.616;2023-03-11T04:52:05;0.40;93.30
18365;DHT22;9309;52.126;11.616;2023-03-11T04:54:32;0.40;92.90
18365;DHT22;9309;52.126;11.616;2023-03-11T04:57:00;0.40;93.00
18365;DHT22;9309;52.126;11.616;2023-03-11T04:59:27;0.50;92.90
18365;DHT22;9309;52.126;11.616;2023-03-11T05:01:54;0.50;92.10
18365;DHT22;9309;52.126;11.616;2023-03-11T05:04:21;0.40;91.50
18365;DHT22;9309;52.126;11.616;2023-03-11T05:06:48;0.40;91.20
18365;DHT22;9309;52.126;11.616;2023-03-11T05:09:16;0.40;91.80
18365;DHT22;9309;52.126;11.616;2023-03-11T05:11:43;0.40;92.00
18365;DHT22;9309;52.126;11.616;2023-03-11T05:14:13;0.40;91.40
18365;DHT22;9309;52.126;11.616;2023-03-11T05:16:40;0.40;91.30
18365;DHT22;9309;52.126;11.616;2023-03-11T05:19:08;0.30;91.70
18365;DHT22;9309;52.126;11.616;2023-03-11T05:21:49;0.30;92.40
18365;DHT22;9309;52.126;11.616;2023-03-11T05:24:18;0.40;91.50
18365;DHT22;9309;52.126;11.616;2023-03-11T05:26:45;0.40;91.90
18365;DHT22;9309;52.126;11.616;2023-03-11T05:29:13;0.40;91.70
18365;DHT22;9309;52.126;11.616;2023-03-11T05:31:40;0.40;91.30
18365;DHT22;9309;52.126;11.616;2023-03-11T05:34:07;0.40;91.70
18365;DHT22;9309;52.126;11.616;2023-03-11T05:36:34;0.40;91.80
18365;DHT22;9309;52.126;11.616;2023-03-11T05:39:01;0.50;91.30
18365;DHT22;9309;52.126;11.616;2023-03-11T05:41:30;0.50;90.50
18365;DHT22;9309;52.126;11.616;2023-03-11T05:43:57;0.40;91.30
18365;DHT22;9309;52.126;11.616;2023-03-11T05:46:25;0.40;91.30
18365;DHT22;9309;52.126;11.616;2023-03-11T05:48:53;0.40;91.30
18365;DHT22;9309;52.126;11.616;2023-03-11T05:51:20;0.40;91.20
18365;DHT22;9309;52.126;11.616;2023-03-11T05:53:47;0.30;91.40
18365;DHT22;9309;52.126;11.616;2023-03-11T05:56:21;0.40;91.70
18365;DHT22;9309;52.126;11.616;2023-03-11T05:58:49;0.40;91.20
18365;DHT22;9309;52.126;11.616;2023-03-11T06:01:17;0.40;91.80
18365;DHT22;9309;52.126;11.616;2023-03-11T06:03:47;0.40;91.40
18365;DHT22;9309;52.126;11.616;2023-03-11T06:06:14;0.40;91.30
18365;DHT22;9309;52.126;11.616;2023-03-11T06:08:42;0.40;91.30
18365;DHT22;9309;52.126;11.616;2023-03-11T06:11:14;0.40;90.80
18365;DHT22;9309;52.126;11.616;2023-03-11T06:13:42;0.40;90.30
18365;DHT22;9309;52.126;11.616;2023-03-11T06:16:10;0.40;91.30
18365;DHT22;9309;52.126;11.616;2023-03-11T06:18:37;0.40;90.80
18365;DHT22;9309;52.126;11.616;2023-03-11T06:21:06;0.40;90.80
18365;DHT22;9309;52.126;11.616;2023-03-11T06:23:33;0.30;91.20
18365;DHT22;9309;52.126;11.616;2023-03-11T06:26:02;0.40;90.70
18365;DHT22;9309;52.126;11.616;2023-03-11T06:28:33;0.40;90.00
18365;DHT22;9309;52.126;11.616;2023-03-11T06:31:06;0.40;90.20
18365;DHT22;9309;52.126;11.616;2023-03-11T06:33:33;0.30;90.60
18365;DHT22;9309;52.126;11.616;2023-03-11T06:36:01;0.30;90.80
18365;DHT22;9309;52.126;11.616;2023-03-11T06:38:30;0.30;90.30
18365;DHT22;9309;52.126;11.616;2023-03-11T06:40:57;0.30;90.40
18365;DHT22;9309;52.126;11.616;2023-03-11T06:43:24;0.40;89.30
18365;DHT22;9309;52.126;11.616;2023-03-11T06:45:52;0.50;89.40
18365;DHT22;9309;52.126;11.616;2023-03-11T06:48:19;0.50;89.30
18365;DHT22;9309;52.126;11.616;2023-03-11T06:50:52;0.50;88.90
18365;DHT22;9309;52.126;11.616;2023-03-11T06:53:18;0.50;89.50
18365;DHT22;9309;52.126;11.616;2023-03-11T06:55:55;0.50;89.60
18365;DHT22;9309;52.126;11.616;2023-03-11T06:58:22;0.60;89.50
18365;DHT22;9309;52.126;11.616;2023-03-11T07:00:49;0.50;89.90
18365;DHT22;9309;52.126;11.616;2023-03-11T07:03:17;0.60;89.50
18365;DHT22;9309;52.126;11.616;2023-03-11T07:05:44;0.70;88.60
18365;DHT22;9309;52.126;11.616;2023-03-11T07:08:11;0.60;89.00
18365;DHT22;9309;52.126;11.616;2023-03-11T07:10:43;0.70;89.20
18365;DHT22;9309;52.126;11.616;2023-03-11T07:13:25;0.70;88.50
18365;DHT22;9309;52.126;11.616;2023-03-11T07:16:00;0.70;88.80
18365;DHT22;9309;52.126;11.616;2023-03-11T07:18:28;0.90;88.00
18365;DHT22;9309;52.126;11.616;2023-03-11T07:20:55;0.90;86.40
18365;DHT22;9309;52.126;11.616;2023-03-11T07:23:22;0.90;87.70
18365;DHT22;9309;52.126;11.616;2023-03-11T07:25:49;1.00;87.80
18365;DHT22;9309;52.126;11.616;2023-03-11T07:28:18;1.00;87.00
18365;DHT22;9309;52.126;11.616;2023-03-11T07:30:48;1.10;86.90
18365;DHT22;9309;52.126;11.616;2023-03-11T07:33:15;1.10;86.60
18365;DHT22;9309;52.126;11.616;2023-03-11T07:35:42;1.10;86.80
18365;DHT22;9309;52.126;11.616;2023-03-11T07:38:08;1.30;86.60
18365;DHT22;9309;52.126;11.616;2023-03-11T07:40:35;1.60;85.50
18365;DHT22;9309;52.126;11.616;2023-03-11T07:43:02;1.60;83.50
18365;DHT22;9309;52.126;11.616;2023-03-11T07:45:29;1.40;84.20
18365;DHT22;9309;52.126;11.616;2023-03-11T07:47:57;1.30;85.30
18365;DHT22;9309;52.126;11.616;2023-03-11T07:50:24;1.40;84.20
18365;DHT22;9309;52.126;11.616;2023-03-11T07:52:51;1.30;85.20
18365;DHT22;9309;52.126;11.616;2023-03-11T07:55:18;1.30;85.90
18365;DHT22;9309;52.126;11.616;2023-03-11T07:57:45;1.30;85.20
18365;DHT22;9309;52.126;11.616;2023-03-11T08:00:13;1.40;85.20
18365;DHT22;9309;52.126;11.616;2023-03-11T08:02:40;1.60;84.50
18365;DHT22;9309;52.126;11.616;2023-03-11T08:05:09;1.50;85.30
18365;DHT22;9309;52.126;11.616;2023-03-11T08:07:36;1.60;84.60
18365;DHT22;9309;52.126;11.616;2023-03-11T08:10:03;1.50;84.20
18365;DHT22;9309;52.126;11.616;2023-03-11T08:12:29;1.40;84.20
18365;DHT22;9309;52.126;11.616;2023-03-11T08:14:56;1.30;84.40
18365;DHT22;9309;52.126;11.616;2023-03-11T08:17:23;1.30;85.50
18365;DHT22;9309;52.126;11.616;2023-03-11T08:19:53;1.30;85.90
18365;DHT22;9309;52.126;11.616;2023-03-11T08:22:22;1.30;85.40
18365;DHT22;9309;52.126;11.616;2023-03-11T08:24:49;1.20;86.10
18365;DHT22;9309;52.126;11.616;2023-03-11T08:27:17;1.20;85.20
18365;DHT22;9309;52.126;11.616;2023-03-11T08:29:44;1.10;85.50
18365;DHT22;9309;52.126;11.616;2023-03-11T08:32:11;1.10;86.40
18365;DHT22;9309;52.126;11.616;2023-03-11T08:34:38;1.20;86.30
18365;DHT22;9309;52.126;11.616;2023-03-11T08:37:05;1.30;84.90
18365;DHT22;9309;52.126;11.616;2023-03-11T08:39:33;1.20;84.80
18365;DHT22;9309;52.126;11.616;2023-03-11T08:42:00;1.10;85.40
18365;DHT22;9309;52.126;11.616;2023-03-11T08:44:27;1.20;83.70
18365;DHT22;9309;52.126;11.616;2023-03-11T08:46:54;1.10;84.90
18365;DHT22;9309;52.126;11.616;2023-03-11T08:49:21;1.10;84.80
18365;DHT22;9309;52.126;11.616;2023-03-11T08:51:49;1.00;84.30
18365;DHT22;9309;52.126;11.616;2023-03-11T08:54:16;0.90;85.00
18365;DHT22;9309;52.126;11.616;2023-03-11T08:56:44;1.00;84.60
18365;DHT22;9309;52.126;11.616;2023-03-11T08:59:12;1.00;84.30
18365;DHT22;9309;52.126;11.616;2023-03-11T09:01:39;1.10;85.10
18365;DHT22;9309;52.126;11.616;2023-03-11T09:04:07;1.20;84.00
18365;DHT22;9309;52.126;11.616;2023-03-11T09:06:34;1.20;83.50
18365;DHT22;9309;52.126;11.616;2023-03-11T09:09:00;1.30;83.20
18365;DHT22;9309;52.126;11.616;2023-03-11T09:11:28;1.30;82.80
18365;DHT22;9309;52.126;11.616;2023-03-11T09:13:57;1.80;81.80
18365;DHT22;9309;52.126;11.616;2023-03-11T09:16:24;2.20;78.00
18365;DHT22;9309;52.126;11.616;2023-03-11T09:18:51;3.10;75.70
18365;DHT22;9309;52.126;11.616;2023-03-11T09:21:18;4.00;70.60
18365;DHT22;9309;52.126;11.616;2023-03-11T09:23:46;4.00;70.30
18365;DHT22;9309;52.126;11.616;2023-03-11T09:26:13;3.80;70.40
18365;DHT22;9309;52.126;11.616;2023-03-11T09:28:41;3.40;72.40
18365;DHT22;9309;52.126;11.616;2023-03-11T09:31:15;3.00;73.60
18365;DHT22;9309;52.126;11.616;2023-03-11T09:33:43;2.90;75.20
18365;DHT22;9309;52.126;11.616;2023-03-11T09:36:12;3.60;73.70
18365;DHT22;9309;52.126;11.616;2023-03-11T09:38:40;4.70;71.10
18365;DHT22;9309;52.126;11.616;2023-03-11T09:41:12;4.40;69.30
18365;DHT22;9309;52.126;11.616;2023-03-11T09:47:05;3.50;71.10
18365;DHT22;9309;52.126;11.616;2023-03-11T09:49:49;3.00;74.70
18365;DHT22;9309;52.126;11.616;2023-03-11T09:52:23;3.40;74.50
18365;DHT22;9309;52.126;11.616;2023-03-11T09:54:53;3.70;73.20
18365;DHT22;9309;52.126;11.616;2023-03-11T09:57:24;3.80;74.10
18365;DHT22;9309;52.126;11.616;2023-03-11T09:59:54;3.90;72.70
18365;DHT22;9309;52.126;11.616;2023-03-11T10:02:24;3.50;74.10
18365;DHT22;9309;52.126;11.616;2023-03-11T10:04:55;3.30;74.80
18365;DHT22;9309;52.126;11.616;2023-03-11T10:07:27;3.40;72.00
18365;DHT22;9309;52.126;11.616;2023-03-11T10:09:57;3.20;73.20
18365;DHT22;9309;52.126;11.616;2023-03-11T10:12:35;3.00;74.70
18365;DHT22;9309;52.126;11.616;2023-03-11T10:15:18;2.90;75.70
18365;DHT22;9309;52.126;11.616;2023-03-11T10:18:00;2.90;75.40
18365;DHT22;9309;52.126;11.616;2023-03-11T10:20:34;3.00;72.50
18365;DHT22;9309;52.126;11.616;2023-03-11T10:23:11;3.30;73.20
18365;DHT22;9309;52.126;11.616;2023-03-11T10:25:47;3.60;69.70
18365;DHT22;9309;52.126;11.616;2023-03-11T10:28:16;3.10;71.50
18365;DHT22;9309;52.126;11.616;2023-03-11T10:30:46;2.80;74.20
18365;DHT22;9309;52.126;11.616;2023-03-11T10:33:25;2.90;72.90
18365;DHT22;9309;52.126;11.616;2023-03-11T10:35:58;3.10;74.90
18365;DHT22;9309;52.126;11.616;2023-03-11T10:38:29;3.70;72.40
18365;DHT22;9309;52.126;11.616;2023-03-11T10:41:00;4.60;65.70
18365;DHT22;9309;52.126;11.616;2023-03-11T10:43:37;4.30;65.90
18365;DHT22;9309;52.126;11.616;2023-03-11T10:46:10;3.90;67.80
18365;DHT22;9309;52.126;11.616;2023-03-11T10:48:39;4.70;65.20
18365;DHT22;9309;52.126;11.616;2023-03-11T10:51:13;5.20;63.70
18365;DHT22;9309;52.126;11.616;2023-03-11T10:53:46;6.50;62.00
18365;DHT22;9309;52.126;11.616;2023-03-11T10:56:24;7.10;57.30
18365;DHT22;9309;52.126;11.616;2023-03-11T10:58:51;6.70;55.60
18365;DHT22;9309;52.126;11.616;2023-03-11T11:01:19;5.60;59.70
18365;DHT22;9309;52.126;11.616;2023-03-11T11:03:49;4.70;61.90
18365;DHT22;9309;52.126;11.616;2023-03-11T11:06:21;5.20;61.90
18365;DHT22;9309;52.126;11.616;2023-03-11T11:08:47;4.90;60.90
18365;DHT22;9309;52.126;11.616;2023-03-11T11:11:19;4.60;64.90
18365;DHT22;9309;52.126;11.616;2023-03-11T11:13:55;4.00;65.80
18365;DHT22;9309;52.126;11.616;2023-03-11T11:16:22;3.40;68.00
18365;DHT22;9309;52.126;11.616;2023-03-11T11:18:53;3.20;69.20
18365;DHT22;9309;52.126;11.616;2023-03-11T11:21:28;3.00;71.30
18365;DHT22;9309;52.126;11.616;2023-03-11T11:24:08;2.80;72.30
18365;DHT22;9309;52.126;11.616;2023-03-11T11:26:37;2.70;71.10
18365;DHT22;9309;52.126;11.616;2023-03-11T11:29:06;2.60;73.10
18365;DHT22;9309;52.126;11.616;2023-03-11T11:31:33;2.50;72.10
18365;DHT22;9309;52.126;11.616;2023-03-11T11:34:01;2.40;71.70
18365;DHT22;9309;52.126;11.616;2023-03-11T11:36:30;2.50;72.60
18365;DHT22;9309;52.126;11.616;2023-03-11T11:38:58;2.60;71.80
18365;DHT22;9309;52.126;11.616;2023-03-11T11:41:27;3.20;72.00
18365;DHT22;9309;52.126;11.616;2023-03-11T11:43:54;5.70;63.80
18365;DHT22;9309;52.126;11.616;2023-03-11T11:46:23;6.40;59.00
18365;DHT22;9309;52.126;11.616;2023-03-11T11:49:03;5.60;61.30
18365;DHT22;9309;52.126;11.616;2023-03-11T11:51:32;6.00;59.90
18365;DHT22;9309;52.126;11.616;2023-03-11T11:54:12;6.00;57.50
18365;DHT22;9309;52.126;11.616;2023-03-11T11:56:41;6.00;58.20
18365;DHT22;9309;52.126;11.616;2023-03-11T11:59:09;6.00;58.10
18365;DHT22;9309;52.126;11.616;2023-03-11T12:01:48;5.70;58.50
18365;DHT22;9309;52.126;11.616;2023-03-11T12:04:27;6.00;57.90
18365;DHT22;9309;52.126;11.616;2023-03-11T12:07:02;6.40;55.10
18365;DHT22;9309;52.126;11.616;2023-03-11T12:09:34;7.50;51.20
18365;DHT22;9309;52.126;11.616;2023-03-11T12:12:12;6.50;53.30
18365;DHT22;9309;52.126;11.616;2023-03-11T12:14:47;5.90;54.50
18365;DHT22;9309;52.126;11.616;2023-03-11T12:17:16;6.00;55.40
18365;DHT22;9309;52.126;11.616;2023-03-11T12:19:50;6.80;53.10
18365;DHT22;9309;52.126;11.616;2023-03-11T12:22:33;7.40;52.00
18365;DHT22;9309;52.126;11.616;2023-03-11T12:25:22;7.60;50.60
18365;DHT22;9309;52.126;11.616;2023-03-11T12:27:56;6.70;52.50
18365;DHT22;9309;52.126;11.616;2023-03-11T12:30:27;9.30;51.40
18365;DHT22;9309;52.126;11.616;2023-03-11T12:32:58;12.00;44.00
18365;DHT22;9309;52.126;11.616;2023-03-11T12:35:29;12.60;39.90
18365;DHT22;9309;52.126;11.616;2023-03-11T12:38:03;10.90;41.40
18365;DHT22;9309;52.126;11.616;2023-03-11T12:40:47;8.90;47.10
18365;DHT22;9309;52.126;11.616;2023-03-11T12:43:56;10.00;45.50
18365;DHT22;9309;52.126;11.616;2023-03-11T12:49:36;10.60;43.20
18365;DHT22;9309;52.126;11.616;2023-03-11T12:52:14;8.20;44.50
18365;DHT22;9309;52.126;11.616;2023-03-11T12:54:42;6.70;49.60
18365;DHT22;9309;52.126;11.616;2023-03-11T12:57:29;8.00;45.60
18365;DHT22;9309;52.126;11.616;2023-03-11T13:00:32;11.20;42.60
18365;DHT22;9309;52.126;11.616;2023-03-11T13:03:15;11.50;38.10
18365;DHT22;9309;52.126;11.616;2023-03-11T13:05:56;9.90;40.70
18365;DHT22;9309;52.126;11.616;2023-03-11T13:08:27;10.30;42.00
18365;DHT22;9309;52.126;11.616;2023-03-11T13:10:57;9.00;42.80
18365;DHT22;9309;52.126;11.616;2023-03-11T13:13:37;9.70;42.20
18365;DHT22;9309;52.126;11.616;2023-03-11T13:16:35;10.70;40.80
18365;DHT22;9309;52.126;11.616;2023-03-11T13:22:41;7.50;44.60
18365;DHT22;9309;52.126;11.616;2023-03-11T13:25:29;7.60;45.10
18365;DHT22;9309;52.126;11.616;2023-03-11T13:28:02;7.10;47.40
18365;DHT22;9309;52.126;11.616;2023-03-11T13:30:37;8.20;43.50
18365;DHT22;9309;52.126;11.616;2023-03-11T13:33:11;9.10;45.40
18365;DHT22;9309;52.126;11.616;2023-03-11T13:35:50;11.50;38.20
18365;DHT22;9309;52.126;11.616;2023-03-11T13:38:38;11.40;37.30
18365;DHT22;9309;52.126;11.616;2023-03-11T13:41:14;9.60;40.80
18365;DHT22;9309;52.126;11.616;2023-03-11T13:43:44;9.10;42.90
18365;DHT22;9309;52.126;11.616;2023-03-11T13:46:16;10.30;40.20
18365;DHT22;9309;52.126;11.616;2023-03-11T13:48:46;9.30;41.30
18365;DHT22;9309;52.126;11.616;2023-03-11T13:51:18;7.90;45.90
18365;DHT22;9309;52.126;11.616;2023-03-11T13:53:50;7.60;49.10
18365;DHT22;9309;52.126;11.616;2023-03-11T13:56:23;9.70;43.40
18365;DHT22;9309;52.126;11.616;2023-03-11T13:58:51;12.20;37.30
18365;DHT22;9309;52.126;11.616;2023-03-11T14:01:17;13.10;36.30
18365;DHT22;9309;52.126;11.616;2023-03-11T14:03:45;14.20;35.80
18365;DHT22;9309;52.126;11.616;2023-03-11T14:06:14;13.10;33.90
18365;DHT22;9309;52.126;11.616;2023-03-11T14:08:41;12.60;34.80
18365;DHT22;9309;52.126;11.616;2023-03-11T14:11:16;11.30;38.30
18365;DHT22;9309;52.126;11.616;2023-03-11T14:13:44;10.10;39.30
18365;DHT22;9309;52.126;11.616;2023-03-11T14:16:14;9.20;41.60
18365;DHT22;9309;52.126;11.616;2023-03-11T14:18:43;9.10;42.90
18365;DHT22;9309;52.126;11.616;2023-03-11T14:21:13;8.20;43.60
18365;DHT22;9309;52.126;11.616;2023-03-11T14:23:42;7.00;47.30
18365;DHT22;9309;52.126;11.616;2023-03-11T14:26:12;6.70;46.80
18365;DHT22;9309;52.126;11.616;2023-03-11T14:28:43;6.20;49.20
18365;DHT22;9309;52.126;11.616;2023-03-11T14:31:27;6.10;49.60
18365;DHT22;9309;52.126;11.616;2023-03-11T14:33:56;5.90;50.80
18365;DHT22;9309;52.126;11.616;2023-03-11T14:36:28;5.70;51.20
18365;DHT22;9309;52.126;11.616;2023-03-11T14:38:55;5.60;51.30
18365;DHT22;9309;52.126;11.616;2023-03-11T14:41:22;5.70;52.90
18365;DHT22;9309;52.126;11.616;2023-03-11T14:43:52;5.40;51.50
18365;DHT22;9309;52.126;11.616;2023-03-11T14:46:22;5.40;53.30
18365;DHT22;9309;52.126;11.616;2023-03-11T14:48:51;5.40;54.60
18365;DHT22;9309;52.126;11.616;2023-03-11T14:51:21;5.40;54.40
18365;DHT22;9309;52.126;11.616;2023-03-11T14:53:52;5.10;53.50
18365;DHT22;9309;52.126;11.616;2023-03-11T14:56:24;4.90;53.80
18365;DHT22;9309;52.126;11.616;2023-03-11T14:58:58;4.60;53.50
18365;DHT22;9309;52.126;11.616;2023-03-11T15:01:31;4.30;55.10
18365;DHT22;9309;52.126;11.616;2023-03-11T15:04:03;4.10;56.40
18365;DHT22;9309;52.126;11.616;2023-03-11T15:06:31;3.90;57.10
18365;DHT22;9309;52.126;11.616;2023-03-11T15:09:05;3.60;58.40
18365;DHT22;9309;52.126;11.616;2023-03-11T15:11:43;3.70;58.10
18365;DHT22;9309;52.126;11.616;2023-03-11T15:14:21;3.90;58.40
18365;DHT22;9309;52.126;11.616;2023-03-11T15:16:48;4.10;57.50
18365;DHT22;9309;52.126;11.616;2023-03-11T15:19:32;4.20;56.50
18365;DHT22;9309;52.126;11.616;2023-03-11T15:22:05;4.20;56.40
18365;DHT22;9309;52.126;11.616;2023-03-11T15:24:33;4.30;56.40
18365;DHT22;9309;52.126;11.616;2023-03-11T15:27:02;4.30;56.60
18365;DHT22;9309;52.126;11.616;2023-03-11T15:29:32;4.20;56.80
18365;DHT22;9309;52.126;11.616;2023-03-11T15:32:00;4.30;56.90
18365;DHT22;9309;52.126;11.616;2023-03-11T15:34:58;4.30;55.20
18365;DHT22;9309;52.126;11.616;2023-03-11T15:37:25;4.20;56.20
18365;DHT22;9309;52.126;11.616;2023-03-11T15:39:52;4.10;56.60
18365;DHT22;9309;52.126;11.616;2023-03-11T15:42:23;4.10;56.50
18365;DHT22;9309;52.126;11.616;2023-03-11T15:45:10;4.10;57.10
18365;DHT22;9309;52.126;11.616;2023-03-11T15:47:38;4.20;55.30
18365;DHT22;9309;52.126;11.616;2023-03-11T15:50:13;4.10;55.90
18365;DHT22;9309;52.126;11.616;2023-03-11T15:52:40;4.30;56.10
18365;DHT22;9309;52.126;11.616;2023-03-11T15:55:09;4.40;55.70
18365;DHT22;9309;52.126;11.616;2023-03-11T15:57:36;4.50;56.70
18365;DHT22;9309;52.126;11.616;2023-03-11T16:00:13;4.40;56.30
18365;DHT22;9309;52.126;11.616;2023-03-11T16:02:40;4.10;57.60
18365;DHT22;9309;52.126;11.616;2023-03-11T16:05:12;4.00;58.20
18365;DHT22;9309;52.126;11.616;2023-03-11T16:07:39;3.90;59.20
18365;DHT22;9309;52.126;11.616;2023-03-11T16:10:06;3.90;59.10
18365;DHT22;9309;52.126;11.616;2023-03-11T16:12:33;3.70;58.70
18365;DHT22;9309;52.126;11.616;2023-03-11T16:15:00;3.60;58.90
18365;DHT22;9309;52.126;11.616;2023-03-11T16:17:28;3.50;59.20